Time;durP1;ratioP1;P1;durP2;ratioP2;P2;SDS_P1;SDS_P2;PMS_P1;PMS_P2;Temp;Humidity;BMP_temperature;BMP_pressure;BME280_temperature;BME280_humidity;BME280_pressure;Samples;Min_cycle;Max_cycle;Signal;HPM_P1;HPM_P2
2023/05/24 01:52:52;;;;;;;20.03;6.27;;;11.30;1.00;;;;;;5075186;28;20425;-73
2023/05/24 01:55:20;;;;;;;29.70;7.03;;;11.20;1.00;;;;;;5082119;28;20435;-71
2023/05/24 01:57:49;;;;;;;24.30;7.63;;;11.20;1.00;;;;;;5082884;28;20420;-70
2023/05/24 02:00:17;;;;;;;25.50;7.40;;;11.30;1.00;;;;;;5092168;28;20840;-71
2023/05/24 02:02:44;;;;;;;30.63;8.43;;;11.30;1.00;;;;;;5078157;28;20519;-75
2023/05/24 02:05:10;;;;;;;21.03;7.27;;;11.30;1.00;;;;;;5087822;28;20402;-70
2023/05/24 02:07:36;;;;;;;18.77;6.80;;;11.30;1.00;;;;;;5086284;28;20901;-70
2023/05/24 02:10:02;;;;;;;17.20;7.73;;;11.30;1.00;;;;;;5093668;28;20799;-75
2023/05/24 02:12:29;;;;;;;22.80;7.00;;;11.30;1.00;;;;;;5077429;28;20423;-75
2023/05/24 02:14:56;;;;;;;24.33;6.87;;;11.30;1.00;;;;;;5076244;28;21082;-75
2023/05/24 02:17:23;;;;;;;27.27;7.30;;;11.30;1.00;;;;;;5083799;28;20406;-71
2023/05/24 02:19:49;;;;;;;16.13;7.37;;;11.20;1.00;;;;;;5079213;28;20414;-75
2023/05/24 02:22:14;;;;;;;26.17;7.03;;;11.20;1.00;;;;;;5086376;28;20756;-75
2023/05/24 02:24:40;;;;;;;29.73;8.03;;;11.10;1.00;;;;;;5071954;28;20193;-74
2023/05/24 02:27:06;;;;;;;28.67;7.87;;;11.10;1.00;;;;;;5081604;28;20185;-70
2023/05/24 02:29:31;;;;;;;22.47;7.60;;;11.10;1.00;;;;;;5076489;28;20182;-75
2023/05/24 02:31:57;;;;;;;29.23;6.53;;;11.10;1.00;;;;;;5079467;28;20185;-71
2023/05/24 02:34:24;;;;;;;26.63;7.93;;;11.20;1.00;;;;;;5081796;28;20210;-70
2023/05/24 02:36:50;;;;;;;19.87;7.50;;;11.20;1.00;;;;;;5088837;28;20177;-70
2023/05/24 02:39:16;;;;;;;23.00;8.70;;;11.20;1.00;;;;;;5091461;28;20401;-74
2023/05/24 02:41:42;;;;;;;26.93;7.60;;;11.20;1.00;;;;;;5085963;28;20394;-75
2023/05/24 02:44:08;;;;;;;17.20;6.87;;;11.20;1.00;;;;;;5089881;28;20428;-75
2023/05/24 02:46:33;;;;;;;32.60;8.43;;;11.20;1.00;;;;;;5076414;28;20547;-71
2023/05/24 02:48:59;;;;;;;32.73;7.63;;;11.00;1.00;;;;;;5074579;28;20170;-75
2023/05/24 02:51:25;;;;;;;27.10;8.20;;;10.90;1.00;;;;;;5073608;28;20309;-71
2023/05/24 02:53:50;;;;;;;28.83;8.33;;;11.00;1.00;;;;;;5073103;28;20194;-71
2023/05/24 02:56:16;;;;;;;21.27;7.03;;;11.00;1.00;;;;;;5072655;28;20185;-75
2023/05/24 02:58:43;;;;;;;23.50;6.63;;;11.10;1.00;;;;;;5089860;28;20642;-71
2023/05/24 03:01:11;;;;;;;30.47;8.97;;;11.00;1.00;;;;;;5071684;28;20174;-73
2023/05/24 03:03:37;;;;;;;23.47;8.03;;;11.10;1.00;;;;;;5090993;28;20440;-75
2023/05/24 03:06:03;;;;;;;30.40;8.00;;;11.00;1.00;;;;;;5077987;28;20416;-71
2023/05/24 03:08:29;;;;;;;24.07;7.93;;;10.90;1.00;;;;;;5072529;28;20438;-75
2023/05/24 03:10:55;;;;;;;23.37;7.60;;;10.90;1.00;;;;;;5082274;28;20189;-75
2023/05/24 03:13:20;;;;;;;24.60;7.57;;;10.90;1.00;;;;;;5072576;28;20210;-75
2023/05/24 03:15:46;;;;;;;23.83;7.20;;;10.90;1.00;;;;;;5071799;28;20175;-75
2023/05/24 03:18:12;;;;;;;31.17;7.37;;;11.00;1.00;;;;;;5076817;28;20190;-71
2023/05/24 03:20:37;;;;;;;24.40;6.90;;;11.10;1.00;;;;;;5085725;28;20177;-71
2023/05/24 03:23:03;;;;;;;28.63;8.57;;;11.00;1.00;;;;;;5084435;28;20212;-71
2023/05/24 03:25:28;;;;;;;18.70;6.53;;;11.00;1.00;;;;;;5079393;28;20532;-70
2023/05/24 03:27:54;;;;;;;28.13;7.97;;;11.10;1.00;;;;;;5079394;28;20582;-73
2023/05/24 03:30:20;;;;;;;25.27;9.03;;;11.00;1.00;;;;;;5087242;28;20201;-70
2023/05/24 03:32:46;;;;;;;26.40;6.70;;;11.10;10.20;;;;;;5086538;28;20210;-72
2023/05/24 03:35:11;;;;;;;27.07;9.47;;;11.10;13.50;;;;;;5076322;28;20209;-73
2023/05/24 03:37:37;;;;;;;17.17;7.90;;;11.10;14.30;;;;;;5085175;28;20210;-70
2023/05/24 03:40:04;;;;;;;27.40;8.53;;;11.10;22.20;;;;;;5084423;28;20189;-74
2023/05/24 03:42:29;;;;;;;26.87;7.17;;;11.20;21.10;;;;;;5076522;28;20731;-70
2023/05/24 03:44:55;;;;;;;22.33;8.13;;;11.20;25.20;;;;;;5084239;28;20403;-75
2023/05/24 03:47:21;;;;;;;33.67;8.60;;;11.10;17.20;;;;;;5080678;28;20284;-71
2023/05/24 03:49:46;;;;;;;29.00;7.40;;;11.20;20.80;;;;;;5079269;28;20186;-72
2023/05/24 03:52:12;;;;;;;21.50;7.10;;;11.20;22.90;;;;;;5071283;28;20181;-75
2023/05/24 03:54:38;;;;;;;29.37;7.60;;;11.10;22.60;;;;;;5072517;28;20238;-75
2023/05/24 03:57:04;;;;;;;20.47;7.97;;;11.10;27.00;;;;;;5087196;28;20711;-75
2023/05/24 03:59:29;;;;;;;27.30;7.60;;;11.10;33.10;;;;;;5072260;28;21096;-75
2023/05/24 04:01:55;;;;;;;35.47;7.93;;;11.10;38.70;;;;;;5083011;28;20179;-72
2023/05/24 04:04:21;;;;;;;23.67;7.13;;;11.20;43.90;;;;;;5071319;28;20268;-72
2023/05/24 04:06:48;;;;;;;24.13;8.30;;;11.20;46.40;;;;;;5074978;28;20430;-71
2023/05/24 04:09:14;;;;;;;37.40;9.50;;;11.30;53.90;;;;;;5090154;28;20177;-74
2023/05/24 04:11:40;;;;;;;16.80;7.00;;;11.20;49.60;;;;;;5069981;28;20482;-71
2023/05/24 04:14:06;;;;;;;25.30;7.27;;;11.20;49.50;;;;;;5072459;28;20441;-75
2023/05/24 04:16:35;;;;;;;31.57;8.47;;;11.20;46.00;;;;;;5090558;28;20405;-72
2023/05/24 04:19:02;;;;;;;29.07;7.13;;;11.20;43.80;;;;;;5075625;28;20413;-70
2023/05/24 04:21:28;;;;;;;34.17;7.37;;;11.20;49.20;;;;;;5091829;28;20523;-75
2023/05/24 04:23:55;;;;;;;23.30;7.60;;;11.30;50.70;;;;;;5076165;28;20533;-72
2023/05/24 04:26:21;;;;;;;22.27;8.33;;;11.40;57.60;;;;;;5081009;28;20391;-75
2023/05/24 04:28:47;;;;;;;28.67;7.07;;;11.30;56.20;;;;;;5086238;28;20423;-71
2023/05/24 04:31:15;;;;;;;19.87;6.80;;;11.40;55.10;;;;;;5087391;28;20434;-71
2023/05/24 04:33:41;;;;;;;17.60;6.87;;;11.40;54.20;;;;;;5093925;28;20471;-72
2023/05/24 04:36:07;;;;;;;33.97;8.50;;;11.50;51.30;;;;;;5081370;28;20428;-71
2023/05/24 04:38:35;;;;;;;34.47;8.20;;;11.50;51.20;;;;;;5089692;28;20423;-74
2023/05/24 04:41:01;;;;;;;23.93;6.50;;;11.50;50.90;;;;;;5085179;28;20950;-70
2023/05/24 04:43:27;;;;;;;28.57;7.33;;;11.50;49.80;;;;;;5075422;28;20775;-75
2023/05/24 04:45:53;;;;;;;16.13;7.80;;;11.50;47.80;;;;;;5082080;28;20413;-74
2023/05/24 04:48:22;;;;;;;26.57;8.73;;;11.60;47.10;;;;;;5094862;28;20411;-70
2023/05/24 04:50:53;;;;;;;21.80;6.97;;;11.60;34.20;;;;;;5092404;28;20464;-71
2023/05/24 04:53:20;;;;;;;26.83;8.87;;;11.60;31.80;;;;;;5082928;28;20852;-70
2023/05/24 04:55:47;;;;;;;29.87;7.53;;;11.50;32.00;;;;;;5076826;28;20448;-74
2023/05/24 04:58:13;;;;;;;24.20;8.13;;;11.50;31.20;;;;;;5081373;28;20944;-74
2023/05/24 05:00:39;;;;;;;22.57;7.87;;;11.50;22.30;;;;;;5077634;28;20954;-70
2023/05/24 05:03:07;;;;;;;27.60;8.50;;;11.50;20.50;;;;;;5085611;28;20444;-75
2023/05/24 05:05:32;;;;;;;32.27;8.53;;;11.40;16.10;;;;;;5089462;28;20490;-70
2023/05/24 05:07:58;;;;;;;28.63;9.17;;;11.40;20.30;;;;;;5082122;28;20916;-74
2023/05/24 05:10:25;;;;;;;27.93;8.37;;;11.40;22.10;;;;;;5089956;28;20185;-74
2023/05/24 05:12:51;;;;;;;33.27;8.30;;;11.40;24.50;;;;;;5090669;28;20542;-75
2023/05/24 05:15:16;;;;;;;29.20;7.43;;;11.40;24.30;;;;;;5085314;28;20908;-75
2023/05/24 05:17:42;;;;;;;27.07;8.80;;;11.40;19.20;;;;;;5084922;28;20428;-75
2023/05/24 05:20:08;;;;;;;19.73;7.20;;;11.40;20.20;;;;;;5080171;28;20185;-75
2023/05/24 05:22:34;;;;;;;19.93;7.67;;;11.40;17.30;;;;;;5089925;28;20550;-74
2023/05/24 05:25:00;;;;;;;28.67;10.53;;;11.40;31.40;;;;;;5086108;28;20421;-70
2023/05/24 05:27:26;;;;;;;32.63;9.53;;;11.60;24.10;;;;;;5091044;28;20839;-70
2023/05/24 05:29:52;;;;;;;34.47;10.90;;;11.60;31.50;;;;;;5077870;28;20464;-74
2023/05/24 05:32:17;;;;;;;24.60;7.10;;;11.70;32.10;;;;;;5074050;28;20480;-70
2023/05/24 05:34:44;;;;;;;29.43;6.33;;;11.80;37.60;;;;;;5086580;28;20284;-76
2023/05/24 05:37:09;;;;;;;26.20;9.00;;;11.90;37.80;;;;;;5077482;28;20178;-76
2023/05/24 05:39:35;;;;;;;20.80;6.90;;;12.00;36.40;;;;;;5086027;28;20412;-70
2023/05/24 05:42:01;;;;;;;32.87;8.50;;;12.10;30.50;;;;;;5087548;28;20202;-72
2023/05/24 05:44:27;;;;;;;28.37;9.80;;;12.20;24.80;;;;;;5087965;28;20567;-70
2023/05/24 05:46:53;;;;;;;28.73;8.57;;;12.30;8.90;;;;;;5075150;28;20220;-69
2023/05/24 05:49:19;;;;;;;30.43;7.37;;;12.40;6.30;;;;;;5087281;28;20261;-75
2023/05/24 05:51:45;;;;;;;20.23;6.40;;;12.40;3.80;;;;;;5074378;28;20442;-70
2023/05/24 05:54:17;;;;;;;29.87;8.03;;;12.50;1.00;;;;;;5077278;28;20448;-75
2023/05/24 05:56:46;;;;;;;19.27;6.90;;;12.50;1.00;;;;;;5088059;28;20412;-69
2023/05/24 05:59:14;;;;;;;31.73;7.30;;;12.50;1.00;;;;;;5078748;28;20466;-70
2023/05/24 06:01:40;;;;;;;34.83;8.27;;;12.50;1.00;;;;;;5076696;28;20420;-69
2023/05/24 06:04:06;;;;;;;25.30;7.80;;;12.40;1.00;;;;;;5083679;28;20455;-75
2023/05/24 06:06:32;;;;;;;30.33;8.00;;;12.40;1.00;;;;;;5077670;28;20467;-73
2023/05/24 06:08:59;;;;;;;33.33;9.57;;;12.50;1.00;;;;;;5082127;28;20416;-75
2023/05/24 06:11:25;;;;;;;23.23;7.70;;;12.50;1.00;;;;;;5071518;28;20573;-68
2023/05/24 06:13:51;;;;;;;26.57;8.20;;;12.60;1.00;;;;;;5082227;28;20431;-69
2023/05/24 06:16:17;;;;;;;28.03;8.63;;;12.60;1.00;;;;;;5074631;28;20458;-70
2023/05/24 06:18:43;;;;;;;32.53;8.43;;;12.70;1.00;;;;;;5081273;28;20495;-69
2023/05/24 06:21:09;;;;;;;34.53;8.07;;;12.70;1.00;;;;;;5085064;28;20186;-69
2023/05/24 06:23:38;;;;;;;25.80;7.30;;;12.70;1.00;;;;;;5085615;28;20210;-70
2023/05/24 06:26:04;;;;;;;24.50;7.17;;;12.70;1.00;;;;;;5073049;28;20435;-76
2023/05/24 06:28:30;;;;;;;25.90;7.90;;;12.70;1.00;;;;;;5079280;28;20502;-77
2023/05/24 06:30:56;;;;;;;37.13;8.30;;;12.70;1.00;;;;;;5083476;28;20515;-70
2023/05/24 06:33:21;;;;;;;26.20;7.20;;;12.70;1.00;;;;;;5077431;28;20213;-76
2023/05/24 06:35:47;;;;;;;22.33;7.33;;;12.70;1.00;;;;;;5092269;28;20243;-69
2023/05/24 06:38:13;;;;;;;22.50;8.50;;;12.80;1.00;;;;;;5090886;28;20177;-75
2023/05/24 06:40:39;;;;;;;23.50;7.10;;;12.80;1.00;;;;;;5074871;28;20425;-72
2023/05/24 06:43:05;;;;;;;26.17;7.73;;;12.90;1.00;;;;;;5083901;28;20452;-76
2023/05/24 06:45:31;;;;;;;23.40;7.13;;;12.90;1.00;;;;;;5093417;28;20219;-75
2023/05/24 06:47:56;;;;;;;21.60;6.90;;;13.00;1.00;;;;;;5081893;28;20178;-76
2023/05/24 06:50:22;;;;;;;17.20;6.20;;;13.10;1.00;;;;;;5082083;28;20188;-70
2023/05/24 06:52:48;;;;;;;20.67;8.37;;;13.10;1.00;;;;;;5073781;28;20209;-76
2023/05/24 06:55:14;;;;;;;25.83;6.40;;;13.30;1.00;;;;;;5089932;28;20434;-74
2023/05/24 06:57:40;;;;;;;26.47;8.27;;;13.40;1.00;;;;;;5080823;28;20415;-71
2023/05/24 07:00:11;;;;;;;33.60;9.87;;;13.50;1.00;;;;;;5077158;28;20173;-75
2023/05/24 07:02:40;;;;;;;25.40;8.50;;;13.40;1.00;;;;;;5072356;28;20440;-75
2023/05/24 07:05:13;;;;;;;25.37;7.77;;;13.40;1.00;;;;;;5085737;28;20431;-76
2023/05/24 07:07:39;;;;;;;20.80;7.63;;;13.30;1.00;;;;;;5081685;28;20454;-70
2023/05/24 07:10:07;;;;;;;28.43;7.70;;;13.30;1.00;;;;;;5083113;28;20979;-74
2023/05/24 07:12:33;;;;;;;20.07;6.13;;;13.20;1.00;;;;;;5084065;28;20448;-75
2023/05/24 07:14:59;;;;;;;20.67;7.50;;;13.30;1.00;;;;;;5071323;28;20471;-70
2023/05/24 07:17:25;;;;;;;23.43;7.40;;;13.40;1.00;;;;;;5080372;28;20626;-76
2023/05/24 07:19:51;;;;;;;22.00;7.90;;;13.40;1.00;;;;;;5093075;28;20157;-69
2023/05/24 07:22:16;;;;;;;24.03;7.87;;;13.40;1.00;;;;;;5092125;28;20180;-74
2023/05/24 07:24:42;;;;;;;37.40;8.30;;;13.40;1.00;;;;;;5092957;28;21000;-76
2023/05/24 07:27:08;;;;;;;38.60;9.60;;;13.40;1.00;;;;;;5092131;28;20173;-71
2023/05/24 07:29:34;;;;;;;28.13;8.40;;;13.40;1.00;;;;;;5092947;28;20192;-70
2023/05/24 07:31:59;;;;;;;19.10;7.03;;;13.40;1.00;;;;;;5092112;28;20170;-70
2023/05/24 07:34:28;;;;;;;26.90;7.10;;;13.40;1.00;;;;;;5092082;28;20713;-70
2023/05/24 07:36:55;;;;;;;29.80;7.10;;;13.40;1.00;;;;;;5085700;28;20171;-71
2023/05/24 07:39:22;;;;;;;24.43;6.70;;;13.30;1.00;;;;;;5072650;28;20380;-70
2023/05/24 07:41:47;;;;;;;42.40;7.20;;;13.30;1.00;;;;;;5071902;28;20408;-76
2023/05/24 07:44:13;;;;;;;20.20;6.07;;;13.40;1.00;;;;;;5072622;28;20425;-76
2023/05/24 07:46:39;;;;;;;25.07;7.10;;;13.50;1.00;;;;;;5074037;28;20166;-76
2023/05/24 07:49:05;;;;;;;23.53;6.37;;;13.60;1.00;;;;;;5092827;28;20480;-76
2023/05/24 07:51:31;;;;;;;25.67;7.00;;;13.80;1.00;;;;;;5091158;28;20166;-70
2023/05/24 07:53:57;;;;;;;33.27;7.63;;;13.80;1.00;;;;;;5096607;28;20284;-71
2023/05/24 07:56:23;;;;;;;23.97;7.40;;;13.90;1.00;;;;;;5091791;28;20504;-76
2023/05/24 07:58:50;;;;;;;31.60;8.60;;;13.90;1.00;;;;;;5076307;28;20184;-77
2023/05/24 08:01:19;;;;;;;20.70;7.70;;;13.90;1.00;;;;;;5075409;28;20411;-76
2023/05/24 08:03:45;;;;;;;18.30;7.70;;;13.90;1.00;;;;;;5076465;28;20454;-76
2023/05/24 08:06:11;;;;;;;21.80;7.03;;;14.00;1.00;;;;;;5077681;28;20492;-70
2023/05/24 08:08:39;;;;;;;22.07;8.00;;;14.00;1.00;;;;;;5096576;28;20871;-70
2023/05/24 08:11:06;;;;;;;16.70;7.23;;;14.20;1.00;;;;;;5094802;28;20884;-76
2023/05/24 08:13:33;;;;;;;20.40;6.87;;;14.30;1.00;;;;;;5096209;28;21046;-69
2023/05/24 08:15:58;;;;;;;18.37;6.00;;;14.40;1.00;;;;;;5081107;28;20897;-76
2023/05/24 08:18:24;;;;;;;19.57;7.23;;;14.40;1.00;;;;;;5076185;28;20412;-70
2023/05/24 08:20:50;;;;;;;20.50;6.33;;;14.40;1.00;;;;;;5075062;28;20994;-70
2023/05/24 08:23:22;;;;;;;12.33;6.20;;;14.50;1.00;;;;;;5075730;28;20194;-75
2023/05/24 08:26:23;;;;;;;21.00;9.37;;;14.70;1.00;;;;;;5086323;28;20897;-77
2023/05/24 08:28:48;;;;;;;18.60;7.50;;;14.70;1.00;;;;;;5095169;28;20919;-69
2023/05/24 08:31:15;;;;;;;26.20;6.33;;;14.90;1.00;;;;;;5093823;28;20438;-71
2023/05/24 08:34:00;;;;;;;16.17;6.87;;;15.00;1.00;;;;;;5095785;28;20459;-77
2023/05/24 08:36:26;;;;;;;19.87;6.37;;;15.10;1.00;;;;;;5094911;28;20434;-70
2023/05/24 08:38:52;;;;;;;20.83;7.00;;;15.30;1.00;;;;;;5095757;28;20772;-77
2023/05/24 08:41:18;;;;;;;13.60;5.47;;;15.30;1.00;;;;;;5093719;28;20223;-76
2023/05/24 08:43:46;;;;;;;19.47;6.93;;;15.50;1.00;;;;;;5095622;28;20213;-70
2023/05/24 08:46:13;;;;;;;8.40;5.60;;;15.60;1.00;;;;;;5079607;28;20210;-66
2023/05/24 08:48:45;;;;;;;15.03;4.67;;;15.70;1.00;;;;;;5073933;28;20436;-70
2023/05/24 08:51:14;;;;;;;13.87;4.60;;;15.90;1.00;;;;;;5073709;28;20417;-70
2023/05/24 08:53:47;;;;;;;9.57;4.67;;;16.00;1.00;;;;;;5095264;28;20461;-71
2023/05/24 08:56:16;;;;;;;8.07;4.50;;;15.80;1.00;;;;;;5094599;28;20792;-70
2023/05/24 08:58:43;;;;;;;7.53;4.10;;;15.80;1.00;;;;;;5095266;28;20396;-77
2023/05/24 09:01:12;;;;;;;12.57;5.57;;;15.60;1.00;;;;;;5076436;28;20515;-70
2023/05/24 09:03:39;;;;;;;12.03;4.53;;;15.50;1.00;;;;;;5073814;28;20432;-76
2023/05/24 09:06:08;;;;;;;12.07;4.00;;;15.60;1.00;;;;;;5075018;28;20444;-69
2023/05/24 09:08:36;;;;;;;17.17;4.60;;;15.90;1.00;;;;;;5074462;28;20781;-77
2023/05/24 09:11:04;;;;;;;16.20;4.90;;;16.10;1.00;;;;;;5074407;28;20436;-77
2023/05/24 09:13:30;;;;;;;17.07;4.80;;;16.20;1.00;;;;;;5093478;28;20470;-76
2023/05/24 09:15:58;;;;;;;12.23;5.43;;;16.20;1.00;;;;;;5095126;28;20411;-71
2023/05/24 09:18:24;;;;;;;19.03;6.77;;;16.00;1.00;;;;;;5095368;28;20415;-69
2023/05/24 09:20:50;;;;;;;15.60;5.23;;;16.00;1.00;;;;;;5093110;28;20811;-77
2023/05/24 09:23:16;;;;;;;14.03;5.97;;;16.00;1.00;;;;;;5094822;28;20189;-71
2023/05/24 09:25:44;;;;;;;13.50;5.30;;;16.20;1.00;;;;;;5094251;28;20406;-77
2023/05/24 09:28:13;;;;;;;16.67;6.40;;;16.70;1.00;;;;;;5094927;28;20894;-77
2023/05/24 09:30:44;;;;;;;14.07;5.60;;;17.30;1.00;;;;;;5084374;28;20433;-70
2023/05/24 09:33:12;;;;;;;21.90;6.07;;;17.30;1.00;;;;;;5074491;28;20521;-78
2023/05/24 09:35:42;;;;;;;27.53;6.20;;;17.00;1.00;;;;;;5074589;28;20416;-76
2023/05/24 09:38:37;;;;;;;18.97;5.17;;;16.70;1.00;;;;;;5074477;28;20435;-70
2023/05/24 09:41:02;;;;;;;17.03;6.40;;;16.60;1.00;;;;;;5072745;28;20456;-77
2023/05/24 09:43:33;;;;;;;14.80;7.80;;;16.80;1.00;;;;;;5078588;28;20491;-67
2023/05/24 09:46:02;;;;;;;14.60;6.33;;;17.50;1.00;;;;;;5094568;28;20169;-68
2023/05/24 09:48:28;;;;;;;15.57;6.23;;;18.10;1.00;;;;;;5094803;28;20416;-77
2023/05/24 09:51:11;;;;;;;15.50;6.00;;;17.70;1.00;;;;;;5091269;28;20844;-68
2023/05/24 09:53:38;;;;;;;9.27;6.23;;;17.70;1.00;;;;;;5094419;28;20466;-77
2023/05/24 09:56:07;;;;;;;13.83;5.80;;;18.30;1.00;;;;;;5094370;28;20400;-77
2023/05/24 09:58:35;;;;;;;17.27;5.57;;;18.90;1.00;;;;;;5094462;28;20408;-75
2023/05/24 10:01:13;;;;;;;17.83;5.37;;;19.50;1.00;;;;;;5091868;28;20492;-75
2023/05/24 10:03:52;;;;;;;15.60;6.10;;;20.00;1.00;;;;;;5094372;28;20435;-69
2023/05/24 10:06:18;;;;;;;14.23;5.93;;;20.10;1.00;;;;;;5084607;28;20432;-74
2023/05/24 10:08:47;;;;;;;22.00;6.00;;;19.70;1.00;;;;;;5072935;28;20424;-70
2023/05/24 10:11:12;;;;;;;14.43;5.00;;;19.60;1.00;;;;;;5073019;28;20420;-70
2023/05/24 10:13:38;;;;;;;15.93;4.70;;;20.00;1.00;;;;;;5073908;28;20455;-79
2023/05/24 10:16:04;;;;;;;14.83;5.10;;;20.50;1.00;;;;;;5078347;28;20178;-69
2023/05/24 10:18:30;;;;;;;13.53;4.80;;;20.90;1.00;;;;;;5093817;28;20488;-69
2023/05/24 10:20:59;;;;;;;15.40;6.17;;;20.90;1.00;;;;;;5092603;28;20396;-78
2023/05/24 10:23:29;;;;;;;14.93;6.10;;;20.80;1.00;;;;;;5093842;28;20498;-79
2023/05/24 10:26:09;;;;;;;17.50;5.20;;;20.80;1.00;;;;;;5092682;28;20451;-70
2023/05/24 10:28:56;;;;;;;11.80;4.20;;;20.80;1.00;;;;;;5093805;28;20403;-70
2023/05/24 10:31:28;;;;;;;15.70;5.23;;;20.70;99.90;;;;;;5092387;28;20424;-79
2023/05/24 10:33:57;;;;;;;14.53;4.80;;;20.80;99.90;;;;;;5092475;28;20483;-70
2023/05/24 10:36:24;;;;;;;14.83;5.20;;;20.30;99.90;;;;;;5092275;28;20404;-78
2023/05/24 10:38:51;;;;;;;10.43;4.20;;;20.00;99.90;;;;;;5093475;28;20434;-78
2023/05/24 10:41:18;;;;;;;6.40;4.33;;;20.40;99.90;;;;;;5092757;28;20461;-69
2023/05/24 10:43:47;;;;;;;7.37;4.00;;;20.90;99.90;;;;;;5082946;28;20458;-73
2023/05/24 10:46:15;;;;;;;7.70;3.33;;;21.10;99.90;;;;;;5091782;28;20912;-76
2023/05/24 10:48:41;;;;;;;10.30;3.23;;;21.60;99.90;;;;;;5082448;28;20983;-79
2023/05/24 10:51:31;;;;;;;14.30;3.57;;;21.70;99.90;;;;;;5092646;28;20404;-78
2023/05/24 10:53:57;;;;;;;4.90;3.43;;;21.40;99.90;;;;;;5092227;28;20459;-70
2023/05/24 10:56:26;;;;;;;9.60;3.43;;;21.00;99.90;;;;;;5092912;28;20408;-70
2023/05/24 10:58:56;;;;;;;6.43;3.63;;;21.30;99.90;;;;;;5088712;28;20427;-74
2023/05/24 11:01:32;;;;;;;6.43;3.33;;;21.70;99.90;;;;;;5084441;28;20430;-70
2023/05/24 11:04:08;;;;;;;5.50;3.80;;;22.20;99.90;;;;;;5089074;28;20887;-78
2023/05/24 11:06:47;;;;;;;10.20;3.33;;;23.00;99.90;;;;;;5092195;28;20518;-70
2023/05/24 11:09:14;;;;;;;5.47;3.40;;;22.70;99.90;;;;;;5093260;28;20449;-79
2023/05/24 11:11:44;;;;;;;10.93;4.63;;;21.90;99.90;;;;;;5091992;28;20994;-79
2023/05/24 11:14:10;;;;;;;10.67;4.13;;;20.50;99.90;;;;;;5091935;28;20463;-79
2023/05/24 11:16:37;;;;;;;12.37;4.50;;;21.00;99.90;;;;;;5093000;28;20753;-69
2023/05/24 11:19:20;;;;;;;7.73;3.50;;;21.80;99.90;;;;;;5088999;28;20522;-69
2023/05/24 11:21:48;;;;;;;11.83;4.10;;;22.20;99.90;;;;;;5091935;28;20806;-75
2023/05/24 11:24:16;;;;;;;6.83;4.10;;;22.10;99.90;;;;;;5085204;28;20940;-70
2023/05/24 11:26:43;;;;;;;10.77;4.23;;;22.20;99.90;;;;;;5074847;28;20405;-70
2023/05/24 11:29:12;;;;;;;6.23;3.20;;;22.70;99.90;;;;;;5076148;28;20436;-70
2023/05/24 11:31:38;;;;;;;9.63;4.00;;;23.20;99.90;;;;;;5076123;28;20404;-69
2023/05/24 11:34:08;;;;;;;13.03;3.83;;;23.60;99.90;;;;;;5076035;28;20459;-78
2023/05/24 11:36:35;;;;;;;5.17;3.40;;;23.60;99.90;;;;;;5076789;28;20400;-68
2023/05/24 11:39:02;;;;;;;7.60;3.83;;;22.70;99.90;;;;;;5076794;28;20897;-72
2023/05/24 11:41:28;;;;;;;6.50;3.03;;;21.80;99.90;;;;;;5075784;28;20404;-69
2023/05/24 11:43:54;;;;;;;6.73;3.70;;;21.00;99.90;;;;;;5093350;28;20462;-74
2023/05/24 11:46:19;;;;;;;7.57;4.17;;;21.20;99.90;;;;;;5097152;28;20169;-77
2023/05/24 11:48:58;;;;;;;11.43;3.30;;;21.80;99.90;;;;;;5096341;28;20174;-70
2023/05/24 11:51:31;;;;;;;3.60;2.70;;;22.50;99.90;;;;;;5096034;28;20157;-67
2023/05/24 11:53:57;;;;;;;10.83;2.93;;;23.30;99.90;;;;;;5095709;28;20808;-77
2023/05/24 11:56:28;;;;;;;2.90;2.60;;;24.00;99.90;;;;;;5091275;28;20427;-74
2023/05/24 11:59:21;;;;;;;6.80;2.80;;;24.40;99.90;;;;;;5075446;28;20546;-77
2023/05/24 12:01:47;;;;;;;4.43;2.17;;;24.70;99.90;;;;;;5075575;28;20416;-76
2023/05/24 12:04:12;;;;;;;6.97;2.10;;;25.10;99.90;;;;;;5089944;28;20474;-76
2023/05/24 12:06:40;;;;;;;2.47;1.50;;;25.60;99.90;;;;;;5075739;28;20170;-66
2023/05/24 12:09:07;;;;;;;3.50;1.77;;;26.00;99.90;;;;;;5076263;28;20619;-74
2023/05/24 12:11:41;;;;;;;5.03;2.20;;;26.20;99.90;;;;;;5075476;28;20885;-76
2023/05/24 12:14:14;;;;;;;3.80;2.30;;;26.60;99.90;;;;;;5083513;28;20469;-66
2023/05/24 12:16:44;;;;;;;6.50;3.43;;;26.80;99.90;;;;;;5096374;28;20396;-72
2023/05/24 12:19:20;;;;;;;4.73;2.23;;;26.80;99.90;;;;;;5096229;28;20452;-65
2023/05/24 12:21:49;;;;;;;3.33;2.60;;;26.60;99.90;;;;;;5095472;28;20419;-72
2023/05/24 12:24:18;;;;;;;4.83;2.47;;;25.20;99.90;;;;;;5095156;28;20478;-73
2023/05/24 12:26:47;;;;;;;6.13;2.33;;;24.10;99.90;;;;;;5095645;28;20403;-65
2023/05/24 12:29:13;;;;;;;7.00;2.30;;;23.30;99.90;;;;;;5096086;28;20404;-65
2023/05/24 12:31:47;;;;;;;4.20;2.50;;;23.20;99.90;;;;;;5095311;28;20416;-65
2023/05/24 12:34:19;;;;;;;7.07;2.57;;;23.70;99.90;;;;;;5080192;28;20459;-73
2023/05/24 12:36:46;;;;;;;11.10;2.67;;;24.10;99.90;;;;;;5084530;28;20416;-67
2023/05/24 12:39:20;;;;;;;7.23;3.03;;;23.90;99.90;;;;;;5095240;28;20858;-76
2023/05/24 12:45:27;;;;;;;8.83;3.60;;;22.60;99.90;;;;;;5095800;28;20395;-68
2023/05/24 12:47:54;;;;;;;4.57;3.00;;;22.00;99.90;;;;;;5095819;28;20764;-76
2023/05/24 12:50:22;;;;;;;5.60;2.70;;;21.90;99.90;;;;;;5095068;28;20395;-67
2023/05/24 12:52:51;;;;;;;4.20;3.20;;;22.10;99.90;;;;;;5082420;28;20459;-67
2023/05/24 12:55:18;;;;;;;4.10;3.33;;;22.20;99.90;;;;;;5075337;28;20452;-76
2023/05/24 12:58:05;;;;;;;4.00;2.43;;;22.40;99.90;;;;;;5075361;28;20431;-68
2023/05/24 13:00:31;;;;;;;3.50;1.90;;;22.50;99.90;;;;;;5073548;28;20520;-67
2023/05/24 13:02:59;;;;;;;2.97;1.77;;;22.60;99.90;;;;;;5084173;28;20538;-76
2023/05/24 13:05:27;;;;;;;6.30;2.63;;;23.00;99.90;;;;;;5095354;28;20218;-68
2023/05/24 13:07:55;;;;;;;2.83;1.57;;;23.50;99.90;;;;;;5095391;28;20937;-68
2023/05/24 13:10:21;;;;;;;4.10;2.83;;;23.80;99.90;;;;;;5093339;28;20518;-70
2023/05/24 13:12:47;;;;;;;4.07;2.40;;;23.90;99.90;;;;;;5095231;28;20423;-77
2023/05/24 13:15:13;;;;;;;3.33;2.80;;;24.10;99.90;;;;;;5095160;28;20507;-68
2023/05/24 13:17:40;;;;;;;10.23;2.40;;;24.20;99.90;;;;;;5095250;28;20176;-74
2023/05/24 13:20:09;;;;;;;2.33;1.80;;;24.30;99.90;;;;;;5092505;28;20396;-75
2023/05/24 13:22:37;;;;;;;3.43;2.07;;;24.30;99.90;;;;;;5095023;28;20415;-77
2023/05/24 13:25:08;;;;;;;5.13;2.73;;;24.00;99.90;;;;;;5095001;28;20459;-68
2023/05/24 13:27:34;;;;;;;4.10;2.50;;;23.50;99.90;;;;;;5094986;28;20872;-69
2023/05/24 13:30:00;;;;;;;4.47;2.10;;;23.00;99.90;;;;;;5094556;28;20460;-76
2023/05/24 13:32:25;;;;;;;5.57;2.60;;;22.80;99.90;;;;;;5092918;28;20485;-68
2023/05/24 13:34:51;;;;;;;5.93;2.40;;;22.80;99.90;;;;;;5094063;28;20205;-71
2023/05/24 13:37:18;;;;;;;3.07;2.67;;;23.00;99.90;;;;;;5093669;28;20185;-71
2023/05/24 13:39:43;;;;;;;3.60;1.77;;;23.20;99.90;;;;;;5093905;28;20172;-70
2023/05/24 13:42:09;;;;;;;2.90;2.30;;;23.30;99.90;;;;;;5091572;28;20443;-65
2023/05/24 13:44:36;;;;;;;2.60;2.40;;;23.20;99.90;;;;;;5093848;28;20264;-66
2023/05/24 13:47:02;;;;;;;7.20;2.57;;;23.10;99.90;;;;;;5094748;28;20166;-67
2023/05/24 13:49:28;;;;;;;6.60;2.90;;;23.10;99.90;;;;;;5093386;28;20825;-65
2023/05/24 13:51:54;;;;;;;2.70;1.83;;;23.00;99.90;;;;;;5091379;28;20638;-66
2023/05/24 13:54:20;;;;;;;3.60;2.43;;;23.00;99.90;;;;;;5094174;28;20250;-67
2023/05/24 13:56:47;;;;;;;3.00;2.37;;;23.10;99.90;;;;;;5080662;28;20519;-70
2023/05/24 13:59:14;;;;;;;7.23;2.20;;;22.80;99.90;;;;;;5073959;28;20401;-73
2023/05/24 14:01:40;;;;;;;3.87;2.70;;;22.70;99.90;;;;;;5085454;28;20427;-68
2023/05/24 14:04:06;;;;;;;4.57;2.90;;;22.60;99.90;;;;;;5091997;28;20454;-67
2023/05/24 14:06:32;;;;;;;10.73;2.93;;;22.60;99.90;;;;;;5093294;28;20186;-70
2023/05/24 14:08:59;;;;;;;6.20;2.60;;;22.70;99.90;;;;;;5094219;28;20926;-69
2023/05/24 14:11:25;;;;;;;4.23;2.80;;;22.70;99.90;;;;;;5090589;28;20443;-69
2023/05/24 14:13:51;;;;;;;4.13;2.60;;;22.70;99.90;;;;;;5093413;28;20447;-68
2023/05/24 14:16:17;;;;;;;4.60;2.40;;;22.70;99.90;;;;;;5083820;28;20430;-73
2023/05/24 14:18:44;;;;;;;2.77;2.20;;;22.40;99.90;;;;;;5078327;28;20409;-66
2023/05/24 14:21:10;;;;;;;4.57;2.70;;;22.40;99.90;;;;;;5078106;28;20436;-68
2023/05/24 14:23:36;;;;;;;3.53;2.30;;;22.40;99.90;;;;;;5077558;28;20444;-66
2023/05/24 14:26:02;;;;;;;3.50;2.20;;;22.50;99.90;;;;;;5089853;28;20181;-73
2023/05/24 14:28:27;;;;;;;4.07;1.87;;;22.40;99.90;;;;;;5093763;28;20170;-66
2023/05/24 14:30:53;;;;;;;2.53;2.10;;;22.40;99.90;;;;;;5091690;28;20173;-72
2023/05/24 14:33:19;;;;;;;2.90;1.90;;;22.40;99.90;;;;;;5084141;28;20250;-72
2023/05/24 14:35:44;;;;;;;2.53;2.33;;;22.30;99.90;;;;;;5074480;28;20193;-73
2023/05/24 14:38:10;;;;;;;3.60;2.20;;;22.00;99.90;;;;;;5073301;28;20162;-72
2023/05/24 14:40:38;;;;;;;2.63;1.77;;;22.20;99.90;;;;;;5071323;28;20200;-74
2023/05/24 14:43:05;;;;;;;8.03;2.67;;;22.20;99.90;;;;;;5073462;28;20420;-72